Time;durP1;ratioP1;P1;durP2;ratioP2;P2;SDS_P1;SDS_P2;PMS_P1;PMS_P2;Temp;Humidity;BMP_temperature;BMP_pressure;BME280_temperature;BME280_humidity;BME280_pressure;Samples;Min_cycle;Max_cycle;Signal;HPM_P1;HPM_P2
2023/03/10 00:00:24;;;;;;;24.80;16.13;;;;;;;;;;5094741;28;20647;-62
2023/03/10 00:02:51;;;;;;;33.03;19.08;;;;;;;;;;5094719;28;20287;-63
2023/03/10 00:05:19;;;;;;;27.13;17.08;;;;;;;;;;5094867;28;20197;-64
2023/03/10 00:07:47;;;;;;;26.38;18.08;;;;;;;;;;5094592;28;20190;-63
2023/03/10 00:10:15;;;;;;;23.05;14.88;;;;;;;;;;5094610;28;20196;-63
2023/03/10 00:12:42;;;;;;;27.70;17.40;;;;;;;;;;5094450;28;20220;-63
2023/03/10 00:15:12;;;;;;;27.92;17.33;;;;;;;;;;5094638;28;20198;-63
2023/03/10 00:17:40;;;;;;;26.48;16.83;;;;;;;;;;5094133;28;20271;-65
2023/03/10 00:20:10;;;;;;;23.35;16.20;;;;;;;;;;5094438;28;20196;-63
2023/03/10 00:22:37;;;;;;;24.83;17.10;;;;;;;;;;5094382;28;20261;-64
2023/03/10 00:25:05;;;;;;;22.35;15.63;;;;;;;;;;5094317;28;20192;-64
2023/03/10 00:27:32;;;;;;;23.63;15.55;;;;;;;;;;5094197;28;20199;-63
2023/03/10 00:29:59;;;;;;;24.85;15.55;;;;;;;;;;5094350;28;20223;-64
2023/03/10 00:32:27;;;;;;;25.60;16.67;;;;;;;;;;5094206;28;20548;-64
2023/03/10 00:34:54;;;;;;;25.90;17.10;;;;;;;;;;5093997;28;20260;-62
2023/03/10 00:37:21;;;;;;;30.00;17.10;;;;;;;;;;5093884;28;20574;-63
2023/03/10 00:39:51;;;;;;;29.00;17.63;;;;;;;;;;5093947;28;20410;-63
2023/03/10 00:42:18;;;;;;;24.67;16.27;;;;;;;;;;5094152;28;20186;-64
2023/03/10 00:44:45;;;;;;;25.55;17.90;;;;;;;;;;5094053;28;20222;-63
2023/03/10 00:47:12;;;;;;;25.73;16.05;;;;;;;;;;5093911;28;20227;-63
2023/03/10 00:49:41;;;;;;;30.13;16.60;;;;;;;;;;5093574;28;20192;-63
2023/03/10 00:52:08;;;;;;;23.63;14.77;;;;;;;;;;5093760;28;20286;-63
2023/03/10 00:54:35;;;;;;;25.05;15.88;;;;;;;;;;5093900;28;20189;-63
2023/03/10 00:57:02;;;;;;;24.00;15.90;;;;;;;;;;5092769;28;20259;-64
2023/03/10 00:59:35;;;;;;;22.80;15.55;;;;;;;;;;5093798;28;20203;-63
2023/03/10 01:02:02;;;;;;;21.88;15.13;;;;;;;;;;5093713;28;20192;-63
2023/03/10 01:04:29;;;;;;;21.20;14.88;;;;;;;;;;5093584;28;20196;-62
2023/03/10 01:06:58;;;;;;;22.33;15.05;;;;;;;;;;5093769;28;20218;-62
2023/03/10 01:09:25;;;;;;;21.15;14.90;;;;;;;;;;5093673;28;20195;-62
2023/03/10 01:11:52;;;;;;;24.13;14.93;;;;;;;;;;5093447;28;20554;-62
2023/03/10 01:14:19;;;;;;;21.65;14.85;;;;;;;;;;5093330;28;20191;-62
2023/03/10 01:16:46;;;;;;;23.88;14.18;;;;;;;;;;5093003;28;20211;-62
2023/03/10 01:19:13;;;;;;;25.42;16.63;;;;;;;;;;5093343;28;20192;-62
2023/03/10 01:21:41;;;;;;;22.67;15.57;;;;;;;;;;5093244;28;20189;-62
2023/03/10 01:24:14;;;;;;;21.20;14.27;;;;;;;;;;5093417;28;20185;-62
2023/03/10 01:26:41;;;;;;;20.17;13.77;;;;;;;;;;5093578;28;20241;-61
2023/03/10 01:29:08;;;;;;;19.52;14.75;;;;;;;;;;5093126;28;20189;-62
2023/03/10 01:31:35;;;;;;;20.25;13.77;;;;;;;;;;5093157;28;20284;-62
2023/03/10 01:34:02;;;;;;;20.92;13.30;;;;;;;;;;5093395;28;20224;-62
2023/03/10 01:36:29;;;;;;;19.13;14.30;;;;;;;;;;5093201;28;20213;-62
2023/03/10 01:38:59;;;;;;;21.05;14.38;;;;;;;;;;5093264;28;20586;-61
2023/03/10 01:41:28;;;;;;;18.77;12.93;;;;;;;;;;5093178;28;20270;-62
2023/03/10 01:43:55;;;;;;;19.77;13.50;;;;;;;;;;5092998;28;20234;-62
2023/03/10 01:46:37;;;;;;;16.15;12.68;;;;;;;;;;5092824;28;20280;-62
2023/03/10 01:49:07;;;;;;;17.15;11.60;;;;;;;;;;5080173;28;20241;-62
2023/03/10 01:51:35;;;;;;;18.70;12.30;;;;;;;;;;5093074;28;20191;-61
2023/03/10 01:54:03;;;;;;;18.58;12.82;;;;;;;;;;5093038;28;20200;-62
2023/03/10 01:56:32;;;;;;;16.83;11.68;;;;;;;;;;5092716;28;20223;-62
2023/03/10 01:59:02;;;;;;;15.60;12.23;;;;;;;;;;5092826;28;20197;-62
2023/03/10 02:01:30;;;;;;;17.70;12.23;;;;;;;;;;5093086;28;20535;-62
2023/03/10 02:04:00;;;;;;;17.38;12.77;;;;;;;;;;5092945;28;20196;-62
2023/03/10 02:06:28;;;;;;;17.30;12.35;;;;;;;;;;5092850;28;20193;-62
2023/03/10 02:08:57;;;;;;;16.85;12.07;;;;;;;;;;5095221;28;20195;-62
2023/03/10 02:11:24;;;;;;;16.33;11.95;;;;;;;;;;5096844;28;20662;-62
2023/03/10 02:13:53;;;;;;;19.30;13.32;;;;;;;;;;5096999;28;20188;-62
2023/03/10 02:16:21;;;;;;;19.95;13.27;;;;;;;;;;5096798;28;20248;-62
2023/03/10 02:18:48;;;;;;;20.10;13.40;;;;;;;;;;5096643;28;20220;-62
2023/03/10 02:21:19;;;;;;;22.70;13.30;;;;;;;;;;5096710;28;20199;-63
2023/03/10 02:23:49;;;;;;;19.48;12.65;;;;;;;;;;5096660;28;20646;-62
2023/03/10 02:26:20;;;;;;;19.38;13.52;;;;;;;;;;5096695;28;20196;-63
2023/03/10 02:28:49;;;;;;;19.80;13.73;;;;;;;;;;5096959;28;20191;-62
2023/03/10 02:31:20;;;;;;;19.92;13.75;;;;;;;;;;5096586;28;20185;-62
2023/03/10 02:33:48;;;;;;;20.42;13.48;;;;;;;;;;5096524;28;20199;-62
2023/03/10 02:36:15;;;;;;;29.02;14.80;;;;;;;;;;5096275;28;20199;-62
2023/03/10 02:38:42;;;;;;;31.23;14.85;;;;;;;;;;5096286;28;20200;-62
2023/03/10 02:41:16;;;;;;;23.70;14.30;;;;;;;;;;5096464;28;20196;-65
2023/03/10 02:43:43;;;;;;;22.25;14.65;;;;;;;;;;5096290;28;20192;-62
2023/03/10 02:46:11;;;;;;;22.13;14.00;;;;;;;;;;5096285;28;20193;-62
2023/03/10 02:48:39;;;;;;;26.65;15.73;;;;;;;;;;5096111;28;20226;-62
2023/03/10 02:51:07;;;;;;;20.40;14.55;;;;;;;;;;5096401;28;20245;-62
2023/03/10 02:53:34;;;;;;;23.23;14.70;;;;;;;;;;5096243;28;20193;-62
2023/03/10 02:56:01;;;;;;;24.08;14.48;;;;;;;;;;5096037;28;20221;-62
2023/03/10 02:58:32;;;;;;;22.02;13.82;;;;;;;;;;5095864;28;20586;-62
2023/03/10 03:00:59;;;;;;;19.45;12.68;;;;;;;;;;5095970;28;20200;-62
2023/03/10 03:03:27;;;;;;;19.60;13.82;;;;;;;;;;5095773;28;20195;-62
2023/03/10 03:05:54;;;;;;;19.77;14.38;;;;;;;;;;5095632;28;20246;-62
2023/03/10 03:08:21;;;;;;;15.80;11.35;;;;;;;;;;5095869;28;20257;-62
2023/03/10 03:10:48;;;;;;;21.25;13.32;;;;;;;;;;5095684;28;20199;-62
2023/03/10 03:13:15;;;;;;;19.45;12.13;;;;;;;;;;5095654;28;20189;-62
2023/03/10 03:15:43;;;;;;;15.95;11.57;;;;;;;;;;5095614;28;20623;-63
2023/03/10 03:18:10;;;;;;;20.80;12.95;;;;;;;;;;5095417;28;20319;-62
2023/03/10 03:20:40;;;;;;;20.13;13.60;;;;;;;;;;5094762;28;20204;-62
2023/03/10 03:23:07;;;;;;;20.42;12.70;;;;;;;;;;5095511;28;20185;-62
2023/03/10 03:25:36;;;;;;;20.98;13.07;;;;;;;;;;5095548;28;20193;-62
2023/03/10 03:28:03;;;;;;;18.33;11.73;;;;;;;;;;5095343;28;20648;-62
2023/03/10 03:30:31;;;;;;;17.90;11.70;;;;;;;;;;5095273;28;20202;-62
2023/03/10 03:32:58;;;;;;;15.45;11.07;;;;;;;;;;5095446;28;20196;-62
2023/03/10 03:35:26;;;;;;;18.55;12.68;;;;;;;;;;5095387;28;20189;-62
2023/03/10 03:37:55;;;;;;;19.02;12.20;;;;;;;;;;5095136;28;20236;-62
2023/03/10 03:40:22;;;;;;;15.27;11.15;;;;;;;;;;5095098;28;20249;-62
2023/03/10 03:42:50;;;;;;;14.52;10.60;;;;;;;;;;5095028;28;20218;-62
2023/03/10 03:45:19;;;;;;;16.55;11.25;;;;;;;;;;5094946;28;20192;-62
2023/03/10 03:47:47;;;;;;;16.10;11.52;;;;;;;;;;5094984;28;20704;-62
2023/03/10 03:50:15;;;;;;;17.00;10.98;;;;;;;;;;5095123;28;20195;-62
2023/03/10 03:52:43;;;;;;;15.05;11.70;;;;;;;;;;5095026;28;20219;-62
2023/03/10 03:55:13;;;;;;;14.93;10.55;;;;;;;;;;5095113;28;20262;-62
2023/03/10 03:57:40;;;;;;;14.05;11.15;;;;;;;;;;5094692;28;20219;-63
2023/03/10 04:00:10;;;;;;;12.60;10.60;;;;;;;;;;5094969;28;20586;-62
2023/03/10 04:02:38;;;;;;;13.90;10.90;;;;;;;;;;5094886;28;20286;-62
2023/03/10 04:05:05;;;;;;;15.25;11.40;;;;;;;;;;5094791;28;20600;-62
2023/03/10 04:07:32;;;;;;;15.68;10.52;;;;;;;;;;5094674;28;20227;-62
2023/03/10 04:09:59;;;;;;;15.05;10.70;;;;;;;;;;5094540;28;20655;-62
2023/03/10 04:12:28;;;;;;;17.48;11.52;;;;;;;;;;5094549;28;20200;-62
2023/03/10 04:14:55;;;;;;;11.35;9.30;;;;;;;;;;5094604;28;20195;-62
2023/03/10 04:17:22;;;;;;;12.70;9.38;;;;;;;;;;5094070;28;20322;-62
2023/03/10 04:19:49;;;;;;;15.57;10.88;;;;;;;;;;5094463;28;20693;-62
2023/03/10 04:22:16;;;;;;;12.77;9.85;;;;;;;;;;5094234;28;20196;-62
2023/03/10 04:24:43;;;;;;;13.55;10.30;;;;;;;;;;5094513;28;20200;-62
2023/03/10 04:27:11;;;;;;;14.27;10.75;;;;;;;;;;5094190;28;20203;-62
2023/03/10 04:29:39;;;;;;;12.55;9.57;;;;;;;;;;5094340;28;20191;-62
2023/03/10 04:32:07;;;;;;;16.05;10.20;;;;;;;;;;5094204;28;20192;-62
2023/03/10 04:34:34;;;;;;;15.15;10.73;;;;;;;;;;5094171;28;20219;-62
2023/03/10 04:37:01;;;;;;;12.57;9.70;;;;;;;;;;5093841;28;20203;-62
2023/03/10 04:39:28;;;;;;;15.02;10.13;;;;;;;;;;5094238;28;20638;-62
2023/03/10 04:41:55;;;;;;;13.77;10.90;;;;;;;;;;5093977;28;20218;-62
2023/03/10 04:44:22;;;;;;;15.60;10.77;;;;;;;;;;5094145;28;20185;-62
2023/03/10 04:46:50;;;;;;;13.45;9.43;;;;;;;;;;5093883;28;20245;-63
2023/03/10 04:49:17;;;;;;;16.13;10.23;;;;;;;;;;5093856;28;20249;-61
2023/03/10 04:51:44;;;;;;;12.88;10.30;;;;;;;;;;5093752;28;20189;-62
2023/03/10 04:54:11;;;;;;;13.25;8.73;;;;;;;;;;5093921;28;20240;-62
2023/03/10 04:56:39;;;;;;;11.00;8.68;;;;;;;;;;5093810;28;20188;-62
2023/03/10 04:59:06;;;;;;;12.05;8.98;;;;;;;;;;5093664;28;20553;-62
2023/03/10 05:01:33;;;;;;;13.80;9.60;;;;;;;;;;5093498;28;20192;-62
2023/03/10 05:04:02;;;;;;;15.00;9.85;;;;;;;;;;5093423;28;20203;-63
2023/03/10 05:06:29;;;;;;;12.05;8.70;;;;;;;;;;5093313;28;20807;-62
2023/03/10 05:08:57;;;;;;;10.93;8.88;;;;;;;;;;5093566;28;20201;-62
2023/03/10 05:11:24;;;;;;;11.80;8.85;;;;;;;;;;5093255;28;20219;-62
2023/03/10 05:13:51;;;;;;;11.18;8.52;;;;;;;;;;5093233;28;20189;-62
2023/03/10 05:16:19;;;;;;;11.13;7.80;;;;;;;;;;5093342;28;20245;-63
2023/03/10 05:18:46;;;;;;;11.63;9.02;;;;;;;;;;5092867;28;20232;-62
2023/03/10 05:21:14;;;;;;;12.93;7.53;;;;;;;;;;5093393;28;20189;-62
2023/03/10 05:23:42;;;;;;;12.27;8.75;;;;;;;;;;5093019;28;20197;-63
2023/03/10 05:26:10;;;;;;;11.65;8.50;;;;;;;;;;5093136;28;20197;-63
2023/03/10 05:28:37;;;;;;;11.07;8.55;;;;;;;;;;5093086;28;20220;-62
2023/03/10 05:31:08;;;;;;;11.52;8.50;;;;;;;;;;5092953;28;20246;-63
2023/03/10 05:33:35;;;;;;;9.77;8.10;;;;;;;;;;5093220;28;20196;-62
2023/03/10 05:36:04;;;;;;;11.75;7.22;;;;;;;;;;5093346;28;20594;-62
2023/03/10 05:38:33;;;;;;;10.85;8.00;;;;;;;;;;5093006;28;20227;-66
2023/03/10 05:41:00;;;;;;;14.25;10.48;;;;;;;;;;5092936;28;20193;-63
2023/03/10 05:43:27;;;;;;;10.55;7.80;;;;;;;;;;5092543;28;20192;-62
2023/03/10 05:45:58;;;;;;;10.32;8.18;;;;;;;;;;5092969;28;20288;-62
2023/03/10 05:48:25;;;;;;;10.60;8.52;;;;;;;;;;5093203;28;20229;-62
2023/03/10 05:50:59;;;;;;;12.02;9.10;;;;;;;;;;5093114;28;20602;-61
2023/03/10 05:53:26;;;;;;;15.65;11.45;;;;;;;;;;5093092;28;20708;-63
2023/03/10 05:55:55;;;;;;;9.88;7.82;;;;;;;;;;5092947;28;20230;-62
2023/03/10 05:58:22;;;;;;;10.48;7.75;;;;;;;;;;5092702;28;20216;-62
2023/03/10 06:00:49;;;;;;;11.75;8.07;;;;;;;;;;5093046;28;20215;-62
2023/03/10 06:03:17;;;;;;;10.18;8.00;;;;;;;;;;5093017;28;20217;-62
2023/03/10 06:05:44;;;;;;;13.07;8.23;;;;;;;;;;5093037;28;20200;-62
2023/03/10 06:08:11;;;;;;;11.45;7.60;;;;;;;;;;5092756;28;20197;-62
2023/03/10 06:10:38;;;;;;;12.38;8.45;;;;;;;;;;5092770;28;20216;-62
2023/03/10 06:13:07;;;;;;;9.18;6.93;;;;;;;;;;5092655;28;20197;-62
2023/03/10 06:15:34;;;;;;;9.07;7.65;;;;;;;;;;5092775;28;20284;-62
2023/03/10 06:18:01;;;;;;;9.70;8.70;;;;;;;;;;5092524;28;20239;-62
2023/03/10 06:20:28;;;;;;;10.45;7.80;;;;;;;;;;5092745;28;20605;-62
2023/03/10 06:22:55;;;;;;;10.98;8.57;;;;;;;;;;5092655;28;20196;-62
2023/03/10 06:25:22;;;;;;;17.23;12.10;;;;;;;;;;5093126;28;20192;-62
2023/03/10 06:27:49;;;;;;;11.40;8.25;;;;;;;;;;5092798;28;20287;-62
2023/03/10 06:30:17;;;;;;;9.57;7.50;;;;;;;;;;5092774;28;20288;-63
2023/03/10 06:32:44;;;;;;;10.45;9.35;;;;;;;;;;5092634;28;20196;-63
2023/03/10 06:35:13;;;;;;;9.73;7.82;;;;;;;;;;5092629;28;20660;-62
2023/03/10 06:37:40;;;;;;;10.68;8.35;;;;;;;;;;5092440;28;20188;-62
2023/03/10 06:40:08;;;;;;;9.52;7.55;;;;;;;;;;5092368;28;20235;-62
2023/03/10 06:42:36;;;;;;;11.55;8.70;;;;;;;;;;5092614;28;20292;-62
2023/03/10 06:45:03;;;;;;;9.13;8.20;;;;;;;;;;5092233;28;20664;-62
2023/03/10 06:47:31;;;;;;;11.30;8.20;;;;;;;;;;5092521;28;20201;-62
2023/03/10 06:49:58;;;;;;;10.48;7.80;;;;;;;;;;5092476;28;20675;-62
2023/03/10 06:52:25;;;;;;;10.40;8.52;;;;;;;;;;5092192;28;20189;-63
2023/03/10 06:54:52;;;;;;;11.20;8.10;;;;;;;;;;5092864;28;20201;-62
2023/03/10 06:57:19;;;;;;;10.57;8.55;;;;;;;;;;5095704;28;20196;-62
2023/03/10 06:59:46;;;;;;;12.63;9.13;;;;;;;;;;5095860;28;20624;-62
2023/03/10 07:02:13;;;;;;;10.32;7.85;;;;;;;;;;5095672;28;20197;-62
2023/03/10 07:04:42;;;;;;;11.10;8.50;;;;;;;;;;5095739;28;20269;-62
2023/03/10 07:07:09;;;;;;;10.10;9.00;;;;;;;;;;5095695;28;20234;-62
2023/03/10 07:09:36;;;;;;;10.77;7.85;;;;;;;;;;5095565;28;20196;-62
2023/03/10 07:12:03;;;;;;;9.70;7.85;;;;;;;;;;5095809;28;20269;-62
2023/03/10 07:14:30;;;;;;;13.48;9.80;;;;;;;;;;5095481;28;20193;-62
2023/03/10 07:16:57;;;;;;;10.82;8.15;;;;;;;;;;5095320;28;20290;-63
2023/03/10 07:19:24;;;;;;;9.93;7.78;;;;;;;;;;5095457;28;20509;-63
2023/03/10 07:21:52;;;;;;;8.27;7.07;;;;;;;;;;5095441;28;20219;-63
2023/03/10 07:24:20;;;;;;;11.32;7.80;;;;;;;;;;5095578;28;20559;-63
2023/03/10 07:26:47;;;;;;;9.57;7.65;;;;;;;;;;5095426;28;20192;-63
2023/03/10 07:29:14;;;;;;;10.07;7.90;;;;;;;;;;5095115;28;20287;-63
2023/03/10 07:31:41;;;;;;;8.18;7.18;;;;;;;;;;5095294;28;20197;-62
2023/03/10 07:34:08;;;;;;;7.85;7.05;;;;;;;;;;5095209;28;20228;-63
2023/03/10 07:36:35;;;;;;;8.63;7.70;;;;;;;;;;5095452;28;20598;-62
2023/03/10 07:39:03;;;;;;;12.70;9.30;;;;;;;;;;5094957;28;20273;-63
2023/03/10 07:41:31;;;;;;;13.32;9.50;;;;;;;;;;5095242;28;20196;-63
2023/03/10 07:43:58;;;;;;;12.88;9.45;;;;;;;;;;5095088;28;20196;-63
2023/03/10 07:46:25;;;;;;;12.60;9.15;;;;;;;;;;5094968;28;20193;-62
2023/03/10 07:48:52;;;;;;;8.60;7.60;;;;;;;;;;5095177;28;20193;-62
2023/03/10 07:51:20;;;;;;;8.65;6.60;;;;;;;;;;5094809;28;20197;-62
2023/03/10 07:53:47;;;;;;;9.30;7.82;;;;;;;;;;5094824;28;20667;-63
2023/03/10 07:56:15;;;;;;;9.70;7.28;;;;;;;;;;5094974;28;20185;-63
2023/03/10 07:58:43;;;;;;;7.88;7.07;;;;;;;;;;5094720;28;20219;-62
2023/03/10 08:01:15;;;;;;;8.90;7.17;;;;;;;;;;5094632;28;20189;-63
2023/03/10 08:03:42;;;;;;;10.02;7.97;;;;;;;;;;5094894;28;20526;-63
2023/03/10 08:06:09;;;;;;;10.35;8.02;;;;;;;;;;5094100;28;20237;-63
2023/03/10 08:08:36;;;;;;;12.48;7.93;;;;;;;;;;5094719;28;20196;-63
2023/03/10 08:11:04;;;;;;;8.82;7.40;;;;;;;;;;5094572;28;20192;-63
2023/03/10 08:13:33;;;;;;;7.90;6.95;;;;;;;;;;5094424;28;20272;-63
2023/03/10 08:16:00;;;;;;;8.15;7.35;;;;;;;;;;5094201;28;20567;-62
2023/03/10 08:18:28;;;;;;;8.65;7.40;;;;;;;;;;5093951;28;20267;-73
2023/03/10 08:20:55;;;;;;;8.80;7.90;;;;;;;;;;5094255;28;20216;-64
2023/03/10 08:23:22;;;;;;;11.23;7.55;;;;;;;;;;5094121;28;20276;-68
2023/03/10 08:25:49;;;;;;;9.50;8.00;;;;;;;;;;5094104;28;20225;-67
2023/03/10 08:28:16;;;;;;;10.93;8.32;;;;;;;;;;5093991;28;20275;-66
2023/03/10 08:30:48;;;;;;;12.10;7.87;;;;;;;;;;5093864;28;20701;-67
2023/03/10 08:33:15;;;;;;;10.20;8.40;;;;;;;;;;5094235;28;21010;-66
2023/03/10 08:35:42;;;;;;;9.10;7.70;;;;;;;;;;5094056;28;20448;-66
2023/03/10 08:38:09;;;;;;;9.23;7.43;;;;;;;;;;5093696;28;20307;-66
2023/03/10 08:40:36;;;;;;;11.40;8.33;;;;;;;;;;5093922;28;20193;-81
2023/03/10 08:43:04;;;;;;;8.60;7.45;;;;;;;;;;5093775;28;20459;-67
2023/03/10 08:45:34;;;;;;;12.68;9.60;;;;;;;;;;5093834;28;20205;-68
2023/03/10 08:48:02;;;;;;;12.20;9.20;;;;;;;;;;5093600;28;20231;-71
2023/03/10 08:50:30;;;;;;;9.85;7.85;;;;;;;;;;5093451;28;20554;-75
2023/03/10 08:52:56;;;;;;;10.33;8.37;;;;;;;;;;5093689;28;20193;-66
2023/03/10 08:55:24;;;;;;;9.50;8.50;;;;;;;;;;5094088;28;20465;-86
2023/03/10 08:57:51;;;;;;;11.60;8.20;;;;;;;;;;5093672;28;20937;-77
2023/03/10 09:00:18;;;;;;;11.20;8.93;;;;;;;;;;5093275;28;20541;-74
2023/03/10 09:02:45;;;;;;;13.13;9.87;;;;;;;;;;5093902;28;20512;-73
2023/03/10 09:05:14;;;;;;;10.50;9.30;;;;;;;;;;5093818;28;20447;-66
2023/03/10 09:07:41;;;;;;;10.63;8.60;;;;;;;;;;5093349;28;20857;-69
2023/03/10 09:10:08;;;;;;;10.37;9.27;;;;;;;;;;5093243;28;20465;-62
2023/03/10 09:12:35;;;;;;;11.53;9.60;;;;;;;;;;5093419;28;20801;-64
2023/03/10 09:15:02;;;;;;;11.27;8.70;;;;;;;;;;5093301;28;20477;-68
2023/03/10 09:17:29;;;;;;;13.47;8.90;;;;;;;;;;5092408;28;20482;-74
2023/03/10 09:19:56;;;;;;;9.80;8.70;;;;;;;;;;5093246;28;20487;-67
2023/03/10 09:22:24;;;;;;;10.23;8.40;;;;;;;;;;5093031;28;20505;-69
2023/03/10 09:24:51;;;;;;;9.20;7.70;;;;;;;;;;5093679;28;20447;-72
2023/03/10 09:27:18;;;;;;;9.10;7.93;;;;;;;;;;5093574;28;20455;-72
2023/03/10 09:29:45;;;;;;;16.60;8.27;;;;;;;;;;5093296;28;20454;-80
2023/03/10 09:32:12;;;;;;;9.53;8.53;;;;;;;;;;5093065;28;21024;-79
2023/03/10 09:34:39;;;;;;;10.60;8.83;;;;;;;;;;5093215;28;20447;-67
2023/03/10 09:37:06;;;;;;;10.17;8.00;;;;;;;;;;5092774;28;20486;-80
2023/03/10 09:39:35;;;;;;;7.77;6.83;;;;;;;;;;5092956;28;20483;-66
2023/03/10 09:42:12;;;;;;;8.17;7.10;;;;;;;;;;5093119;28;20840;-66
2023/03/10 09:44:41;;;;;;;10.20;7.53;;;;;;;;;;5092868;28;20500;-68
2023/03/10 09:47:19;;;;;;;7.33;6.63;;;;;;;;;;5093157;28;20538;-66
2023/03/10 09:49:50;;;;;;;10.17;6.17;;;;;;;;;;5092993;28;20534;-73
2023/03/10 09:52:20;;;;;;;7.10;5.37;;;;;;;;;;5092963;28;20454;-86
2023/03/10 09:54:54;;;;;;;6.87;5.57;;;;;;;;;;5093320;28;20454;-66
2023/03/10 09:57:23;;;;;;;5.83;4.57;;;;;;;;;;5092944;28;20924;-66
2023/03/10 09:59:52;;;;;;;5.13;4.43;;;;;;;;;;5092510;28;20489;-70
2023/03/10 10:02:23;;;;;;;4.10;3.70;;;;;;;;;;5092980;28;20516;-70
2023/03/10 10:04:53;;;;;;;3.17;2.97;;;;;;;;;;5092978;28;20528;-62
2023/03/10 10:07:21;;;;;;;2.40;2.20;;;;;;;;;;5092733;28;20542;-69
2023/03/10 10:09:49;;;;;;;2.40;2.20;;;;;;;;;;5112907;28;20452;-63
2023/03/10 10:12:22;;;;;;;3.13;2.93;;;;;;;;;;5113125;28;20486;-65
2023/03/10 10:14:49;;;;;;;4.83;4.03;;;;;;;;;;5112927;28;20813;-66
2023/03/10 10:17:22;;;;;;;1.67;1.57;;;;;;;;;;5113053;28;20560;-69
2023/03/10 10:19:50;;;;;;;1.57;1.47;;;;;;;;;;5113071;28;20477;-66
2023/03/10 10:22:24;;;;;;;1.43;1.33;;;;;;;;;;5112545;28;20992;-70
2023/03/10 10:25:05;;;;;;;1.93;1.40;;;;;;;;;;5112890;28;20437;-75
2023/03/10 10:27:33;;;;;;;7.30;5.63;;;;;;;;;;5113220;28;20456;-63
2023/03/10 10:30:27;;;;;;;2.40;2.07;;;;;;;;;;5115871;28;20464;-62
2023/03/10 10:32:58;;;;;;;2.00;1.40;;;;;;;;;;5116895;28;20537;-68
2023/03/10 10:35:26;;;;;;;1.73;1.10;;;;;;;;;;5116658;28;20453;-68
2023/03/10 10:38:00;;;;;;;1.10;0.90;;;;;;;;;;5116930;28;20441;-67
2023/03/10 10:40:28;;;;;;;1.43;0.90;;;;;;;;;;5116435;28;20481;-67
2023/03/10 10:42:59;;;;;;;1.83;1.40;;;;;;;;;;5116682;28;20499;-65
2023/03/10 10:45:29;;;;;;;1.20;1.00;;;;;;;;;;5116712;28;20817;-69
2023/03/10 10:47:57;;;;;;;1.07;0.97;;;;;;;;;;5117191;28;20445;-73
2023/03/10 10:50:25;;;;;;;2.30;1.20;;;;;;;;;;5116821;28;20510;-67
2023/03/10 10:52:54;;;;;;;1.30;1.20;;;;;;;;;;5116501;28;20446;-75
2023/03/10 10:55:26;;;;;;;4.10;1.10;;;;;;;;;;5116682;28;20467;-77
2023/03/10 10:57:59;;;;;;;1.53;1.00;;;;;;;;;;5116262;28;20445;-65
2023/03/10 11:00:30;;;;;;;1.23;1.13;;;;;;;;;;5116099;28;20484;-74
2023/03/10 11:03:01;;;;;;;4.73;1.23;;;;;;;;;;5116505;28;20533;-79
2023/03/10 11:05:34;;;;;;;1.07;0.97;;;;;;;;;;5116425;28;20450;-74
2023/03/10 11:08:16;;;;;;;2.93;1.90;;;;;;;;;;5116313;28;20492;-76
2023/03/10 11:10:44;;;;;;;2.20;1.50;;;;;;;;;;5116125;28;20774;-72
2023/03/10 11:13:17;;;;;;;1.10;1.00;;;;;;;;;;5115694;27;20449;-75
2023/03/10 11:15:50;;;;;;;1.10;0.90;;;;;;;;;;5116173;28;20460;-76
2023/03/10 11:18:19;;;;;;;1.33;1.23;;;;;;;;;;5115895;28;20477;-65
2023/03/10 11:20:48;;;;;;;1.67;0.90;;;;;;;;;;5115823;28;20482;-66
2023/03/10 11:23:19;;;;;;;1.43;0.83;;;;;;;;;;5115824;28;20635;-67
2023/03/10 11:25:49;;;;;;;1.37;0.80;;;;;;;;;;5116187;28;20468;-74
2023/03/10 11:28:27;;;;;;;1.30;0.90;;;;;;;;;;5115971;27;20442;-64
2023/03/10 11:30:58;;;;;;;2.30;2.10;;;;;;;;;;5115822;28;20794;-66
2023/03/10 11:33:28;;;;;;;9.40;8.47;;;;;;;;;;5115723;28;20460;-66
2023/03/10 11:35:57;;;;;;;7.70;7.00;;;;;;;;;;5115783;28;20812;-66
2023/03/10 11:38:29;;;;;;;8.63;7.80;;;;;;;;;;5115822;27;20537;-67
2023/03/10 11:40:59;;;;;;;7.30;6.60;;;;;;;;;;5114840;28;20484;-67
2023/03/10 11:43:37;;;;;;;9.50;8.57;;;;;;;;;;5115608;28;20482;-66
2023/03/10 11:46:09;;;;;;;10.33;9.20;;;;;;;;;;5115603;27;20575;-66
2023/03/10 11:48:45;;;;;;;10.77;9.77;;;;;;;;;;5115791;28;20446;-65
2023/03/10 11:51:15;;;;;;;15.10;9.83;;;;;;;;;;5115649;28;20450;-66
2023/03/10 11:53:43;;;;;;;10.73;9.63;;;;;;;;;;5115478;28;20446;-66
2023/03/10 11:56:13;;;;;;;12.93;10.70;;;;;;;;;;5115331;28;20466;-66
2023/03/10 11:58:44;;;;;;;10.47;9.60;;;;;;;;;;5115234;28;20442;-66
2023/03/10 12:01:14;;;;;;;13.40;12.20;;;;;;;;;;5115410;28;20489;-66
2023/03/10 12:03:47;;;;;;;12.83;11.53;;;;;;;;;;5115310;28;20450;-66
2023/03/10 12:06:16;;;;;;;12.17;11.00;;;;;;;;;;5115227;28;20446;-66
2023/03/10 12:08:44;;;;;;;14.90;13.40;;;;;;;;;;5114938;28;20454;-67
2023/03/10 12:11:14;;;;;;;12.33;9.73;;;;;;;;;;5114917;28;20453;-66
2023/03/10 12:13:45;;;;;;;11.33;9.70;;;;;;;;;;5115208;28;20456;-66
2023/03/10 12:16:14;;;;;;;11.07;10.07;;;;;;;;;;5114943;28;20956;-66
2023/03/10 12:18:41;;;;;;;12.10;10.90;;;;;;;;;;5114649;28;20480;-67
2023/03/10 12:21:16;;;;;;;11.67;10.50;;;;;;;;;;5114789;28;20883;-66
2023/03/10 12:23:45;;;;;;;10.67;9.77;;;;;;;;;;5114765;28;20518;-66
2023/03/10 12:26:12;;;;;;;12.40;11.13;;;;;;;;;;5114744;28;20782;-66
2023/03/10 12:28:40;;;;;;;14.93;13.30;;;;;;;;;;5114704;28;20529;-66
2023/03/10 12:31:10;;;;;;;13.87;12.57;;;;;;;;;;5114525;28;20481;-66
2023/03/10 12:33:45;;;;;;;16.37;13.50;;;;;;;;;;5114544;28;20450;-66
2023/03/10 12:36:14;;;;;;;14.33;12.83;;;;;;;;;;5114406;28;20446;-66
2023/03/10 12:38:49;;;;;;;14.47;13.07;;;;;;;;;;5114311;28;20446;-66
2023/03/10 12:41:31;;;;;;;13.77;12.47;;;;;;;;;;5114387;28;20857;-66
2023/03/10 12:43:59;;;;;;;14.37;12.97;;;;;;;;;;5114225;28;20480;-66
2023/03/10 12:46:29;;;;;;;14.13;12.60;;;;;;;;;;5114352;28;20442;-68
2023/03/10 12:49:07;;;;;;;14.73;13.23;;;;;;;;;;5114213;28;20446;-67
2023/03/10 12:51:37;;;;;;;13.53;12.30;;;;;;;;;;5114165;28;20474;-67
2023/03/10 12:54:13;;;;;;;13.47;12.30;;;;;;;;;;5114291;28;21034;-67
2023/03/10 12:56:43;;;;;;;13.70;12.40;;;;;;;;;;5114203;28;20456;-66
2023/03/10 12:59:15;;;;;;;11.63;10.53;;;;;;;;;;5114040;28;20856;-66
2023/03/10 13:01:46;;;;;;;11.83;10.73;;;;;;;;;;5114194;28;20520;-65
2023/03/10 13:04:15;;;;;;;11.63;10.63;;;;;;;;;;5114375;28;20544;-66
2023/03/10 13:06:44;;;;;;;14.23;12.43;;;;;;;;;;5114065;28;20446;-67
2023/03/10 13:09:21;;;;;;;13.70;12.37;;;;;;;;;;5113918;28;20843;-67
2023/03/10 13:11:51;;;;;;;11.37;10.37;;;;;;;;;;5114035;28;20478;-67
2023/03/10 13:14:19;;;;;;;11.37;9.73;;;;;;;;;;5113723;28;20933;-66
2023/03/10 13:16:54;;;;;;;13.73;12.13;;;;;;;;;;5113737;28;20511;-67
2023/03/10 13:19:22;;;;;;;12.20;11.10;;;;;;;;;;5113870;28;20821;-66
2023/03/10 13:21:49;;;;;;;10.43;9.53;;;;;;;;;;5113706;28;20559;-66
2023/03/10 13:24:22;;;;;;;10.93;10.03;;;;;;;;;;5113361;28;20430;-67
2023/03/10 13:26:49;;;;;;;9.30;8.60;;;;;;;;;;5113573;28;21016;-66
2023/03/10 13:29:18;;;;;;;8.47;7.67;;;;;;;;;;5113669;28;20450;-66
2023/03/10 13:31:52;;;;;;;6.00;5.50;;;;;;;;;;5113677;28;20450;-67
2023/03/10 13:34:21;;;;;;;6.57;6.00;;;;;;;;;;5113575;28;20442;-67
2023/03/10 13:36:48;;;;;;;5.83;5.43;;;;;;;;;;5113362;28;20450;-66
2023/03/10 13:39:16;;;;;;;6.60;6.10;;;;;;;;;;5113559;28;20552;-67
2023/03/10 13:41:44;;;;;;;6.67;5.87;;;;;;;;;;5113548;28;20512;-67
2023/03/10 13:44:16;;;;;;;8.23;6.20;;;;;;;;;;5113324;28;20446;-66
2023/03/10 13:46:46;;;;;;;7.37;6.57;;;;;;;;;;5113659;28;20945;-67
2023/03/10 13:49:16;;;;;;;9.10;6.70;;;;;;;;;;5113333;28;20452;-66
2023/03/10 13:51:52;;;;;;;7.33;6.70;;;;;;;;;;5113426;28;20446;-66
2023/03/10 13:54:20;;;;;;;6.97;6.13;;;;;;;;;;5113516;28;20540;-66
2023/03/10 13:56:48;;;;;;;6.47;5.90;;;;;;;;;;5113217;28;20482;-67
2023/03/10 13:59:16;;;;;;;5.73;5.20;;;;;;;;;;5113102;28;20453;-66
2023/03/10 14:01:48;;;;;;;5.67;5.27;;;;;;;;;;5113166;28;20551;-67
2023/03/10 14:04:17;;;;;;;6.80;6.20;;;;;;;;;;5114865;28;20446;-66
2023/03/10 14:06:46;;;;;;;7.90;7.20;;;;;;;;;;5117529;27;20478;-66
2023/03/10 14:09:14;;;;;;;8.80;8.00;;;;;;;;;;5117308;28;20937;-67
2023/03/10 14:11:43;;;;;;;9.33;8.53;;;;;;;;;;5117328;28;20457;-66
2023/03/10 14:14:11;;;;;;;9.83;8.97;;;;;;;;;;5117186;28;20453;-66
2023/03/10 14:16:44;;;;;;;9.17;8.27;;;;;;;;;;5117176;28;20448;-66
2023/03/10 14:19:12;;;;;;;7.97;7.27;;;;;;;;;;5117188;27;20469;-66
2023/03/10 14:21:39;;;;;;;8.40;7.10;;;;;;;;;;5117087;28;20489;-66
2023/03/10 14:24:10;;;;;;;6.33;5.73;;;;;;;;;;5117086;27;20809;-67
2023/03/10 14:26:38;;;;;;;5.90;5.50;;;;;;;;;;5116995;28;21015;-67
2023/03/10 14:29:11;;;;;;;6.53;6.03;;;;;;;;;;5117188;28;20473;-67
2023/03/10 14:31:38;;;;;;;7.33;6.73;;;;;;;;;;5117131;28;20534;-67
2023/03/10 14:34:05;;;;;;;6.40;5.90;;;;;;;;;;5117025;28;20442;-67
2023/03/10 14:36:32;;;;;;;5.83;5.30;;;;;;;;;;5116819;28;20466;-65